Time;durP1;ratioP1;P1;durP2;ratioP2;P2;SDS_P1;SDS_P2;PMS_P1;PMS_P2;Temp;Humidity;BMP_temperature;BMP_pressure;BME280_temperature;BME280_humidity;BME280_pressure;Samples;Min_cycle;Max_cycle;Signal;HPM_P1;HPM_P2
2022/08/13 00:01:16;;;;;;;2.97;1.52;;;24.70;41.10;;;;;;5039620;28;20232;-80
2022/08/13 00:03:44;;;;;;;2.25;1.50;;;24.70;41.30;;;;;;5039573;28;20191;-81
2022/08/13 00:06:12;;;;;;;1.98;1.58;;;24.70;41.60;;;;;;5039817;28;20203;-81
2022/08/13 00:08:40;;;;;;;5.13;1.70;;;24.70;41.10;;;;;;5057977;28;20221;-80
2022/08/13 00:12:56;;;;;;;2.35;1.83;;;24.70;41.40;;;;;;5041909;28;20722;-81
2022/08/13 00:14:03;;;;;;;1.60;1.50;;;24.50;41.50;;;;;;5043709;28;20210;-80
2022/08/13 00:16:31;;;;;;;3.47;1.40;;;24.50;41.80;;;;;;5037110;28;20184;-80
2022/08/13 00:18:59;;;;;;;2.55;1.73;;;24.50;41.90;;;;;;5044860;28;20221;-80
2022/08/13 00:21:28;;;;;;;3.80;1.70;;;24.40;41.60;;;;;;5045335;28;20194;-80
2022/08/13 00:23:57;;;;;;;2.40;1.55;;;24.50;41.80;;;;;;5058709;28;20565;-80
2022/08/13 00:26:26;;;;;;;2.63;1.80;;;24.50;42.10;;;;;;5060432;28;20207;-80
2022/08/13 00:28:54;;;;;;;2.97;1.77;;;24.50;42.40;;;;;;5046275;28;20591;-80
2022/08/13 00:31:22;;;;;;;1.90;1.70;;;24.40;42.30;;;;;;5045466;28;20226;-81
2022/08/13 00:33:50;;;;;;;1.70;1.60;;;24.30;42.60;;;;;;5037453;28;20198;-80
2022/08/13 00:36:17;;;;;;;3.42;1.55;;;24.30;42.80;;;;;;5047471;28;20202;-80
2022/08/13 00:38:45;;;;;;;1.95;1.65;;;24.30;42.80;;;;;;5042457;28;20221;-80
2022/08/13 00:41:37;;;;;;;3.03;1.52;;;24.20;43.20;;;;;;5041096;28;20187;-81
2022/08/13 00:44:04;;;;;;;2.67;1.63;;;24.20;43.20;;;;;;5040707;28;20209;-80
2022/08/13 00:46:32;;;;;;;2.53;1.50;;;24.10;43.50;;;;;;5050801;28;20195;-80
2022/08/13 00:49:01;;;;;;;5.18;2.00;;;24.10;43.90;;;;;;5037862;28;20219;-81
2022/08/13 00:51:29;;;;;;;1.92;1.42;;;24.00;43.80;;;;;;5046052;28;20211;-81
2022/08/13 00:53:58;;;;;;;2.95;1.58;;;23.90;43.50;;;;;;5050058;28;20665;-81
2022/08/13 00:56:27;;;;;;;3.58;2.00;;;23.90;43.80;;;;;;5042869;28;20202;-81
2022/08/13 00:58:56;;;;;;;1.73;1.55;;;23.80;44.00;;;;;;5044656;28;20218;-80
2022/08/13 01:01:27;;;;;;;3.70;1.80;;;23.80;44.80;;;;;;5042706;28;20191;-81
2022/08/13 01:03:55;;;;;;;1.90;1.48;;;24.00;45.20;;;;;;5045350;28;20206;-81
2022/08/13 01:06:24;;;;;;;2.25;1.50;;;24.00;44.90;;;;;;5048009;28;20205;-81
2022/08/13 01:08:53;;;;;;;1.88;1.70;;;24.10;44.70;;;;;;5043785;28;20218;-81
2022/08/13 01:11:23;;;;;;;2.95;1.88;;;24.10;45.10;;;;;;5049262;28;20215;-81
2022/08/13 01:13:52;;;;;;;2.65;1.65;;;23.90;45.20;;;;;;5040126;28;20215;-81
2022/08/13 01:16:21;;;;;;;2.75;1.90;;;23.90;46.00;;;;;;5047213;28;20207;-81
2022/08/13 01:18:51;;;;;;;1.95;1.52;;;24.00;45.30;;;;;;5044813;28;20225;-81
2022/08/13 01:21:21;;;;;;;2.92;1.95;;;24.00;45.30;;;;;;5046262;28;20199;-81
2022/08/13 01:23:52;;;;;;;3.45;1.90;;;24.00;45.30;;;;;;5054572;28;20569;-81
2022/08/13 01:26:22;;;;;;;2.00;1.67;;;24.20;45.40;;;;;;5055524;28;20195;-81
2022/08/13 01:28:52;;;;;;;3.25;1.77;;;24.20;45.10;;;;;;5051439;28;21603;-81
2022/08/13 01:31:20;;;;;;;2.28;1.90;;;24.20;44.90;;;;;;5052392;28;20215;-81
2022/08/13 01:33:49;;;;;;;2.55;1.52;;;24.20;44.80;;;;;;5051204;28;20197;-81
2022/08/13 01:36:18;;;;;;;3.80;1.95;;;24.20;45.50;;;;;;5047097;28;20202;-81
2022/08/13 01:38:45;;;;;;;3.00;1.70;;;24.20;45.00;;;;;;5053465;28;20257;-81
2022/08/13 01:41:14;;;;;;;2.65;1.75;;;24.10;45.10;;;;;;5050320;28;20206;-81
2022/08/13 01:43:42;;;;;;;3.05;2.03;;;24.10;45.20;;;;;;5054193;28;20204;-80
2022/08/13 01:46:11;;;;;;;4.10;1.75;;;24.10;45.40;;;;;;5048194;28;20206;-81
2022/08/13 01:51:31;;;;;;;1.88;1.77;;;24.10;46.30;;;;;;5061066;28;20199;-80
2022/08/13 01:54:00;;;;;;;3.42;2.00;;;24.00;46.40;;;;;;5044943;28;20210;-81
2022/08/13 01:56:31;;;;;;;2.63;2.00;;;24.00;46.00;;;;;;5047516;28;20199;-81
2022/08/13 01:59:01;;;;;;;5.63;2.08;;;24.00;46.10;;;;;;5051331;28;20214;-81
2022/08/13 02:01:30;;;;;;;2.17;1.70;;;24.00;46.20;;;;;;5046065;28;20191;-81
2022/08/13 02:03:59;;;;;;;2.50;1.80;;;24.00;46.40;;;;;;5049222;28;20210;-81
2022/08/13 02:06:29;;;;;;;2.13;1.92;;;24.00;46.60;;;;;;5051573;28;20206;-81
2022/08/13 02:08:59;;;;;;;2.00;1.80;;;23.90;46.80;;;;;;5050907;28;20222;-81
2022/08/13 02:11:27;;;;;;;2.30;1.83;;;23.80;47.20;;;;;;5045843;28;20211;-81
2022/08/13 02:13:57;;;;;;;3.55;1.95;;;23.60;47.80;;;;;;5049807;28;20214;-81
2022/08/13 02:16:28;;;;;;;4.32;2.10;;;23.60;48.10;;;;;;5048382;28;20195;-80
2022/08/13 02:18:56;;;;;;;4.13;2.10;;;23.60;48.40;;;;;;5045989;28;20576;-80
2022/08/13 02:21:25;;;;;;;2.38;1.80;;;23.30;49.00;;;;;;5064329;28;20202;-80
2022/08/13 02:23:56;;;;;;;3.80;2.15;;;23.20;49.40;;;;;;5054074;28;20198;-80
2022/08/13 02:26:24;;;;;;;3.42;2.15;;;23.20;49.80;;;;;;5056704;28;20191;-81
2022/08/13 02:28:51;;;;;;;2.20;1.70;;;23.20;50.50;;;;;;5056287;28;20223;-81
2022/08/13 02:31:21;;;;;;;2.15;1.95;;;23.10;50.30;;;;;;5055547;28;20218;-80
2022/08/13 02:33:48;;;;;;;2.03;1.83;;;23.30;50.10;;;;;;5050049;28;20201;-80
2022/08/13 02:36:22;;;;;;;2.13;1.92;;;23.10;50.80;;;;;;5050645;28;20203;-80
2022/08/13 02:38:55;;;;;;;3.28;1.80;;;23.20;50.40;;;;;;5055863;28;20605;-80
2022/08/13 02:41:42;;;;;;;3.40;2.10;;;23.20;50.30;;;;;;5051543;28;20203;-81
2022/08/13 02:44:11;;;;;;;3.60;2.20;;;23.10;50.90;;;;;;5052050;28;20205;-81
2022/08/13 02:46:42;;;;;;;2.65;1.63;;;23.10;50.50;;;;;;5048242;28;20186;-80
2022/08/13 02:49:12;;;;;;;2.35;1.80;;;23.10;50.70;;;;;;5052829;28;20194;-81
2022/08/13 02:51:39;;;;;;;2.67;1.83;;;22.90;50.80;;;;;;5052539;28;20693;-80
2022/08/13 02:54:07;;;;;;;2.28;2.08;;;22.80;51.40;;;;;;5048643;28;20201;-80
2022/08/13 02:56:36;;;;;;;3.05;1.73;;;22.60;51.70;;;;;;5047718;28;20198;-80
2022/08/13 02:59:08;;;;;;;4.13;1.67;;;22.70;51.90;;;;;;5050064;28;20227;-81
2022/08/13 03:01:38;;;;;;;2.53;2.33;;;22.60;52.10;;;;;;5050002;28;20199;-80
2022/08/13 03:04:07;;;;;;;3.35;1.67;;;22.60;52.70;;;;;;5048806;28;20219;-81
2022/08/13 03:06:35;;;;;;;3.90;1.70;;;22.80;52.50;;;;;;5049273;28;20195;-80
2022/08/13 03:09:04;;;;;;;2.38;1.70;;;23.00;51.90;;;;;;5048700;28;20214;-80
2022/08/13 03:11:33;;;;;;;4.13;2.10;;;23.10;51.60;;;;;;5046891;28;20202;-80
2022/08/13 03:14:04;;;;;;;2.83;1.52;;;23.20;51.20;;;;;;5050254;28;20213;-80
2022/08/13 03:16:32;;;;;;;2.45;2.15;;;23.20;50.80;;;;;;5053519;28;20210;-80
2022/08/13 03:19:00;;;;;;;4.53;2.10;;;22.90;51.10;;;;;;5051934;28;20229;-81
2022/08/13 03:21:32;;;;;;;2.20;2.00;;;22.80;52.10;;;;;;5053015;28;20203;-81
2022/08/13 03:24:00;;;;;;;3.88;1.70;;;23.00;51.60;;;;;;5050453;28;20198;-80
2022/08/13 03:26:29;;;;;;;2.97;1.90;;;23.10;51.30;;;;;;5049728;28;20202;-80
2022/08/13 03:28:57;;;;;;;2.80;2.03;;;23.10;51.20;;;;;;5048588;28;20238;-80
2022/08/13 03:31:27;;;;;;;2.92;2.10;;;23.10;51.20;;;;;;5065691;28;20198;-80
2022/08/13 03:33:58;;;;;;;2.42;1.83;;;23.10;51.20;;;;;;5046049;28;20202;-80
2022/08/13 03:36:27;;;;;;;2.10;1.90;;;23.00;51.60;;;;;;5049926;28;20203;-80
2022/08/13 03:38:56;;;;;;;3.42;2.00;;;23.00;51.80;;;;;;5042925;28;20728;-80
2022/08/13 03:41:23;;;;;;;2.00;1.90;;;23.00;51.70;;;;;;5049894;28;20187;-81
2022/08/13 03:43:51;;;;;;;2.20;1.83;;;23.00;51.60;;;;;;5047684;28;20195;-81
2022/08/13 03:46:21;;;;;;;2.83;1.80;;;23.00;51.60;;;;;;5050455;28;20203;-80
2022/08/13 03:48:50;;;;;;;4.72;2.08;;;23.00;51.60;;;;;;5044954;28;20215;-80
2022/08/13 03:51:20;;;;;;;4.28;2.15;;;23.00;51.60;;;;;;5052998;28;20209;-80
2022/08/13 03:53:50;;;;;;;2.92;1.90;;;22.90;51.90;;;;;;5049959;28;20227;-81
2022/08/13 03:56:18;;;;;;;2.65;1.90;;;23.00;52.00;;;;;;5048544;28;20198;-80
2022/08/13 03:58:46;;;;;;;1.98;1.77;;;22.90;52.10;;;;;;5062267;28;20572;-80
2022/08/13 04:01:15;;;;;;;2.30;2.10;;;22.90;52.30;;;;;;5051308;28;20190;-81
2022/08/13 04:03:42;;;;;;;2.65;2.13;;;22.80;52.40;;;;;;5051159;28;20205;-80
2022/08/13 04:06:15;;;;;;;4.35;1.92;;;22.80;52.60;;;;;;5050356;28;20202;-80
2022/08/13 04:08:44;;;;;;;5.35;2.00;;;22.70;52.70;;;;;;5052346;28;20225;-81
2022/08/13 04:11:18;;;;;;;4.50;2.17;;;22.60;53.10;;;;;;5048094;28;20206;-80
2022/08/13 04:13:46;;;;;;;2.25;1.70;;;22.70;53.10;;;;;;5051838;28;20224;-81
2022/08/13 04:16:17;;;;;;;2.53;2.03;;;22.60;53.50;;;;;;5046821;28;20202;-81
2022/08/13 04:18:46;;;;;;;2.38;2.00;;;22.60;53.40;;;;;;5050969;28;20214;-81
2022/08/13 04:21:15;;;;;;;2.35;2.00;;;22.70;53.50;;;;;;5046595;28;20225;-81
2022/08/13 04:23:43;;;;;;;2.92;1.88;;;22.70;53.30;;;;;;5065678;28;20191;-81
2022/08/13 04:26:14;;;;;;;1.92;1.80;;;22.70;53.40;;;;;;5047751;28;20206;-81
2022/08/13 04:28:47;;;;;;;3.15;2.53;;;22.80;53.20;;;;;;5062998;28;20229;-80
2022/08/13 04:31:15;;;;;;;2.67;1.80;;;22.70;53.40;;;;;;5048462;28;20210;-80
2022/08/13 04:33:42;;;;;;;1.88;1.77;;;22.80;53.20;;;;;;5064156;28;20233;-80
2022/08/13 04:36:11;;;;;;;2.65;2.05;;;22.90;53.20;;;;;;5058044;28;20202;-80
2022/08/13 04:38:39;;;;;;;2.78;1.98;;;22.80;53.40;;;;;;5046643;28;20496;-80
2022/08/13 04:41:09;;;;;;;4.38;2.25;;;22.70;53.70;;;;;;5050440;28;20194;-80
2022/08/13 04:43:38;;;;;;;5.53;1.85;;;22.40;54.40;;;;;;5053431;28;20190;-80
2022/08/13 04:46:06;;;;;;;4.13;2.30;;;22.50;55.10;;;;;;5061904;28;20203;-80
2022/08/13 04:48:33;;;;;;;3.75;2.20;;;22.60;54.80;;;;;;5051123;28;20213;-80
2022/08/13 04:51:01;;;;;;;2.65;2.45;;;22.30;55.20;;;;;;5051110;28;20207;-81
2022/08/13 04:53:31;;;;;;;2.72;2.22;;;22.60;55.30;;;;;;5051040;28;20214;-80
2022/08/13 04:56:01;;;;;;;3.45;2.38;;;22.70;55.10;;;;;;5047240;28;20194;-80
2022/08/13 04:58:33;;;;;;;3.47;3.17;;;22.70;55.20;;;;;;5047598;28;20211;-80
2022/08/13 05:01:09;;;;;;;5.20;3.10;;;22.50;56.40;;;;;;5051723;28;20198;-81
2022/08/13 05:03:38;;;;;;;5.70;2.80;;;22.50;56.70;;;;;;5048860;28;20186;-80
2022/08/13 05:06:07;;;;;;;3.03;2.08;;;22.50;56.70;;;;;;5048215;28;20217;-81
2022/08/13 05:08:47;;;;;;;8.75;3.10;;;22.40;57.10;;;;;;5051401;28;20218;-79
2022/08/13 05:11:15;;;;;;;2.95;2.20;;;22.40;57.30;;;;;;5040375;28;20209;-79
2022/08/13 05:13:43;;;;;;;11.68;2.28;;;22.00;58.40;;;;;;5043770;28;20697;-81
2022/08/13 05:16:15;;;;;;;2.92;1.83;;;21.90;59.50;;;;;;5046381;28;20198;-79
2022/08/13 05:18:45;;;;;;;3.35;1.80;;;22.00;59.40;;;;;;5041021;28;20222;-79
2022/08/13 05:21:14;;;;;;;2.55;2.35;;;21.60;60.40;;;;;;5044088;28;20194;-79
2022/08/13 05:23:43;;;;;;;3.17;2.00;;;21.50;62.80;;;;;;5043569;28;20194;-79
2022/08/13 05:26:12;;;;;;;1.75;1.65;;;21.80;63.30;;;;;;5045878;28;20210;-81
2022/08/13 05:28:42;;;;;;;2.50;1.88;;;22.30;62.00;;;;;;5044213;28;20214;-79
2022/08/13 05:31:10;;;;;;;2.13;1.88;;;22.50;60.50;;;;;;5035757;28;20649;-80
2022/08/13 05:33:39;;;;;;;2.22;1.90;;;22.60;60.10;;;;;;5045980;28;20218;-81
2022/08/13 05:36:07;;;;;;;2.05;1.90;;;22.70;60.10;;;;;;5045141;28;20198;-81
2022/08/13 05:38:35;;;;;;;2.20;2.00;;;22.80;60.00;;;;;;5045504;28;20230;-79
2022/08/13 05:41:06;;;;;;;2.20;1.98;;;22.80;60.20;;;;;;5042886;28;20203;-81
2022/08/13 05:43:36;;;;;;;3.05;1.90;;;22.80;60.00;;;;;;5046062;28;20182;-82
2022/08/13 05:46:10;;;;;;;2.83;1.90;;;22.90;60.20;;;;;;5060093;28;20199;-81
2022/08/13 05:48:42;;;;;;;2.17;1.80;;;22.90;60.00;;;;;;5047754;28;20564;-81
2022/08/13 05:51:13;;;;;;;3.13;2.13;;;23.00;60.10;;;;;;5043114;28;20210;-81
2022/08/13 05:53:41;;;;;;;2.85;2.20;;;23.10;60.20;;;;;;5056104;28;20221;-80
2022/08/13 05:56:09;;;;;;;11.05;2.58;;;23.10;60.20;;;;;;5045008;28;20194;-80
2022/08/13 05:58:37;;;;;;;3.65;2.42;;;23.10;60.40;;;;;;5044006;28;20218;-81
2022/08/13 06:03:51;;;;;;;2.53;2.33;;;23.10;61.40;;;;;;5044464;28;20190;-81
2022/08/13 06:06:20;;;;;;;2.63;1.90;;;23.30;61.50;;;;;;5045356;28;20209;-81
2022/08/13 06:08:48;;;;;;;3.15;2.20;;;23.40;61.70;;;;;;5054985;28;20226;-81
2022/08/13 06:11:17;;;;;;;3.75;2.42;;;23.40;61.40;;;;;;5051597;28;20237;-81
2022/08/13 06:13:49;;;;;;;3.78;2.33;;;23.40;61.80;;;;;;5045597;28;20605;-80
2022/08/13 06:16:20;;;;;;;2.72;2.17;;;23.50;61.90;;;;;;5038818;28;20198;-80
2022/08/13 06:19:01;;;;;;;3.92;2.05;;;23.50;62.20;;;;;;5046205;28;20226;-81
2022/08/13 06:21:28;;;;;;;4.10;2.17;;;23.60;62.40;;;;;;5043815;28;20221;-81
2022/08/13 06:23:56;;;;;;;3.60;2.00;;;23.50;62.80;;;;;;5049620;28;20194;-81
2022/08/13 06:26:24;;;;;;;3.25;2.40;;;23.50;63.50;;;;;;5038011;28;20204;-81
2022/08/13 06:28:52;;;;;;;3.03;2.08;;;23.60;63.50;;;;;;5048231;28;20214;-80
2022/08/13 06:31:38;;;;;;;5.32;2.33;;;23.70;63.70;;;;;;5046051;28;20209;-80
2022/08/13 06:34:09;;;;;;;3.72;2.15;;;23.50;64.70;;;;;;5047558;28;20572;-79
2022/08/13 06:36:37;;;;;;;3.03;2.30;;;23.70;65.20;;;;;;5040658;28;20692;-79
2022/08/13 06:39:09;;;;;;;3.72;2.22;;;23.80;65.00;;;;;;5039075;28;20226;-79
2022/08/13 06:41:36;;;;;;;4.30;2.50;;;23.90;65.30;;;;;;5037584;28;20203;-78
2022/08/13 06:44:12;;;;;;;4.05;2.45;;;23.90;65.00;;;;;;5045273;28;20198;-79
2022/08/13 06:46:39;;;;;;;3.33;2.38;;;23.70;65.90;;;;;;5045717;28;20190;-79
2022/08/13 06:49:09;;;;;;;5.70;2.47;;;23.80;65.00;;;;;;5044157;28;20230;-79
2022/08/13 06:51:37;;;;;;;2.78;2.40;;;23.90;65.00;;;;;;5046711;28;20182;-77
2022/08/13 06:54:09;;;;;;;3.63;2.40;;;23.90;65.50;;;;;;5035666;28;20211;-77
2022/08/13 06:56:38;;;;;;;4.18;2.20;;;24.10;65.40;;;;;;5044181;28;20206;-80
2022/08/13 06:59:12;;;;;;;2.60;2.15;;;24.00;65.60;;;;;;5046201;28;20214;-80
2022/08/13 07:01:42;;;;;;;4.55;2.47;;;24.00;66.00;;;;;;5042007;28;20194;-80
2022/08/13 07:04:12;;;;;;;2.75;2.45;;;24.00;66.40;;;;;;5042678;28;20649;-79
2022/08/13 07:06:44;;;;;;;2.75;2.50;;;24.10;66.00;;;;;;5044839;28;20191;-83
2022/08/13 07:09:11;;;;;;;4.10;2.60;;;24.20;65.70;;;;;;5038969;28;20234;-79
2022/08/13 07:11:45;;;;;;;5.40;2.60;;;24.40;64.80;;;;;;5044145;28;20210;-81
2022/08/13 07:14:18;;;;;;;2.92;2.03;;;24.50;64.40;;;;;;5052369;28;20214;-79
2022/08/13 07:16:46;;;;;;;3.38;2.20;;;24.70;63.20;;;;;;5046589;28;20191;-80
2022/08/13 07:19:15;;;;;;;5.53;2.55;;;24.80;62.20;;;;;;5040097;28;20218;-80
2022/08/13 07:21:43;;;;;;;2.38;2.17;;;24.90;61.20;;;;;;5041797;28;20205;-80
2022/08/13 07:24:11;;;;;;;4.25;2.97;;;24.90;60.10;;;;;;5043524;28;20202;-80
2022/08/13 07:26:39;;;;;;;2.72;2.53;;;24.90;59.90;;;;;;5041767;28;20645;-80
2022/08/13 07:29:08;;;;;;;4.00;3.67;;;25.00;59.70;;;;;;5048207;28;20245;-80
2022/08/13 07:31:39;;;;;;;2.50;2.30;;;25.00;59.40;;;;;;5046557;28;20195;-80
2022/08/13 07:34:07;;;;;;;2.92;2.10;;;25.20;58.90;;;;;;5039783;28;20578;-80
2022/08/13 07:36:40;;;;;;;5.15;2.08;;;25.30;58.60;;;;;;5041087;28;20183;-80
2022/08/13 07:39:09;;;;;;;3.58;2.50;;;25.40;59.00;;;;;;5040172;28;20702;-80
2022/08/13 07:41:40;;;;;;;2.70;2.50;;;25.50;59.10;;;;;;5044128;28;20203;-80
2022/08/13 07:44:13;;;;;;;4.78;2.78;;;25.50;60.10;;;;;;5049392;28;20190;-80
2022/08/13 07:46:44;;;;;;;5.70;2.83;;;25.60;59.60;;;;;;5033635;28;20222;-80
2022/08/13 07:49:13;;;;;;;2.95;2.65;;;25.70;59.50;;;;;;5043011;28;20230;-80
2022/08/13 07:51:43;;;;;;;3.65;2.65;;;25.80;59.40;;;;;;5043462;28;20210;-80
2022/08/13 07:54:11;;;;;;;3.97;2.33;;;25.80;58.50;;;;;;5056709;28;20578;-80
2022/08/13 07:56:39;;;;;;;3.22;2.70;;;25.90;55.70;;;;;;5033144;28;20195;-80
2022/08/13 07:59:12;;;;;;;4.22;3.83;;;25.90;55.80;;;;;;5032067;28;20222;-80
2022/08/13 08:01:46;;;;;;;4.70;4.30;;;26.00;57.00;;;;;;5046902;28;20213;-80
2022/08/13 08:04:15;;;;;;;2.65;2.17;;;26.10;57.60;;;;;;5048511;28;20661;-80
2022/08/13 08:06:46;;;;;;;2.45;2.10;;;26.20;56.40;;;;;;5033608;28;20199;-80
2022/08/13 08:09:24;;;;;;;3.47;3.17;;;26.10;55.70;;;;;;5045535;28;20217;-79
2022/08/13 08:14:37;;;;;;;2.05;1.90;;;26.30;55.20;;;;;;5042126;28;20683;-80
2022/08/13 08:17:08;;;;;;;5.38;2.38;;;26.40;54.70;;;;;;5045922;28;20739;-80
2022/08/13 08:19:35;;;;;;;4.68;2.25;;;26.50;53.60;;;;;;5036059;28;20214;-80
2022/08/13 08:22:11;;;;;;;4.90;2.33;;;26.50;53.60;;;;;;5039739;28;20775;-80
2022/08/13 08:24:39;;;;;;;4.65;2.30;;;26.70;53.00;;;;;;5040875;28;20656;-80
2022/08/13 08:27:10;;;;;;;4.53;2.75;;;26.70;52.50;;;;;;5048249;28;20210;-79
2022/08/13 08:29:40;;;;;;;2.85;2.10;;;26.80;52.30;;;;;;5042344;28;20194;-82
2022/08/13 08:32:08;;;;;;;6.32;2.40;;;26.80;52.10;;;;;;5042354;28;20202;-81
2022/08/13 08:34:40;;;;;;;2.60;1.75;;;26.90;51.80;;;;;;5041377;28;20207;-82
2022/08/13 08:42:35;;;;;;;4.60;1.92;;;26.90;51.40;;;;;;5048878;28;20806;-80
2022/08/13 08:42:51;;;;;;;2.17;2.00;;;27.00;50.20;;;;;;5053414;28;20198;-81
2022/08/13 08:45:20;;;;;;;3.50;3.10;;;27.00;50.70;;;;;;5051928;28;20202;-81
2022/08/13 08:47:52;;;;;;;2.40;2.28;;;27.10;50.30;;;;;;5044554;28;20219;-81
2022/08/13 08:50:24;;;;;;;2.25;2.05;;;27.20;50.40;;;;;;5042059;28;20206;-81
2022/08/13 08:55:42;;;;;;;2.92;2.50;;;27.20;49.90;;;;;;5049315;28;20545;-81
2022/08/13 08:58:12;;;;;;;3.75;2.83;;;27.30;49.80;;;;;;5036081;28;20565;-81
2022/08/13 09:00:41;;;;;;;3.80;2.20;;;27.40;49.80;;;;;;5044764;28;20190;-81
2022/08/13 09:03:10;;;;;;;3.10;2.33;;;27.40;49.50;;;;;;5049647;28;20203;-81
2022/08/13 09:05:38;;;;;;;2.88;1.85;;;27.40;48.20;;;;;;5036835;28;20545;-81
2022/08/13 09:08:18;;;;;;;1.38;1.27;;;27.40;47.50;;;;;;5044059;28;20224;-81
2022/08/13 09:10:48;;;;;;;1.45;1.30;;;27.50;46.10;;;;;;5045855;28;20201;-80
2022/08/13 09:13:19;;;;;;;3.72;1.75;;;27.50;46.20;;;;;;5048711;28;20521;-80
2022/08/13 09:15:48;;;;;;;3.33;1.90;;;27.50;46.20;;;;;;5047432;28;20704;-81
2022/08/13 09:18:19;;;;;;;3.25;2.20;;;27.50;47.70;;;;;;5048797;28;20616;-80
2022/08/13 09:21:07;;;;;;;5.63;2.60;;;27.60;47.80;;;;;;5052414;28;20209;-81
2022/08/13 09:23:50;;;;;;;2.67;2.00;;;27.60;48.30;;;;;;5041798;28;20195;-81
2022/08/13 09:26:33;;;;;;;3.03;2.20;;;27.60;46.60;;;;;;5042774;28;20199;-80
2022/08/13 09:29:05;;;;;;;2.63;2.10;;;27.70;47.20;;;;;;5036002;28;20225;-80
2022/08/13 09:31:35;;;;;;;3.58;2.20;;;27.80;47.00;;;;;;5055325;28;20205;-80
2022/08/13 09:34:03;;;;;;;2.67;2.10;;;27.80;47.10;;;;;;5045075;28;20203;-81
2022/08/13 09:36:31;;;;;;;5.57;2.30;;;27.90;45.70;;;;;;5047605;28;20218;-81
2022/08/13 09:39:00;;;;;;;1.98;1.88;;;27.80;45.70;;;;;;5033220;28;20222;-81
2022/08/13 09:41:33;;;;;;;1.92;1.83;;;27.90;45.60;;;;;;5052178;28;20575;-80
2022/08/13 09:44:00;;;;;;;2.17;1.98;;;28.00;46.00;;;;;;5051474;28;20198;-80
2022/08/13 09:46:31;;;;;;;1.92;1.80;;;28.00;43.60;;;;;;5048544;28;20768;-80
2022/08/13 09:49:11;;;;;;;2.35;2.15;;;28.00;44.50;;;;;;5047776;28;20218;-80
2022/08/13 09:51:39;;;;;;;2.80;2.15;;;27.90;44.40;;;;;;5041899;28;20210;-80
2022/08/13 09:54:10;;;;;;;2.45;1.77;;;28.10;45.30;;;;;;5047597;28;20210;-80
2022/08/13 09:56:38;;;;;;;2.72;1.90;;;28.10;44.90;;;;;;5048037;28;20221;-80
2022/08/13 09:59:06;;;;;;;1.85;1.70;;;28.10;43.80;;;;;;5046046;28;20219;-80
2022/08/13 10:01:34;;;;;;;2.58;1.92;;;28.20;43.30;;;;;;5045608;28;20211;-81
2022/08/13 10:04:02;;;;;;;2.17;1.80;;;28.20;42.80;;;;;;5045516;28;20206;-81
2022/08/13 10:06:33;;;;;;;2.47;2.28;;;28.30;43.20;;;;;;5046983;28;20209;-81
2022/08/13 10:09:01;;;;;;;2.70;2.42;;;28.30;42.90;;;;;;5060990;28;20214;-81
2022/08/13 10:11:30;;;;;;;3.38;2.30;;;28.30;42.90;;;;;;5044349;28;20561;-81
2022/08/13 10:13:57;;;;;;;3.95;1.88;;;28.30;43.60;;;;;;5047333;28;20210;-81
2022/08/13 10:16:25;;;;;;;1.98;1.88;;;28.40;42.10;;;;;;5036102;28;21094;-81
2022/08/13 10:18:52;;;;;;;3.10;2.35;;;28.50;42.00;;;;;;5060280;28;20214;-81
2022/08/13 10:21:21;;;;;;;3.80;1.80;;;28.60;42.20;;;;;;5043417;28;20206;-80
2022/08/13 10:23:48;;;;;;;4.40;2.17;;;28.70;42.50;;;;;;5047361;28;20195;-80
2022/08/13 10:26:20;;;;;;;2.25;2.05;;;28.70;42.30;;;;;;5042559;28;20198;-80
2022/08/13 10:29:03;;;;;;;2.35;2.10;;;28.70;41.80;;;;;;5046727;28;20237;-81
2022/08/13 10:31:36;;;;;;;2.22;1.90;;;28.80;41.70;;;;;;5039266;28;20194;-81
2022/08/13 10:34:13;;;;;;;2.65;1.80;;;28.80;41.20;;;;;;5043113;28;20194;-82
2022/08/13 10:36:42;;;;;;;2.00;1.77;;;28.80;40.80;;;;;;5052014;28;20217;-81
2022/08/13 10:39:13;;;;;;;2.63;1.92;;;28.80;40.00;;;;;;5050863;28;20588;-81
2022/08/13 10:42:00;;;;;;;2.00;1.90;;;28.90;40.30;;;;;;5048747;28;20225;-81
2022/08/13 10:44:29;;;;;;;2.63;2.10;;;29.10;40.00;;;;;;5048647;28;20205;-81
2022/08/13 10:46:56;;;;;;;1.85;1.75;;;29.10;39.10;;;;;;5050066;28;20206;-81
2022/08/13 10:49:24;;;;;;;1.80;1.70;;;29.10;38.50;;;;;;5049371;28;20199;-81
2022/08/13 10:51:51;;;;;;;2.40;2.22;;;29.10;39.50;;;;;;5046351;28;20201;-81
2022/08/13 10:54:19;;;;;;;2.20;2.00;;;29.20;39.60;;;;;;5050641;28;20210;-81
2022/08/13 10:56:47;;;;;;;1.83;1.70;;;29.30;38.50;;;;;;5044306;28;20229;-81
2022/08/13 10:59:14;;;;;;;1.90;1.77;;;29.40;38.30;;;;;;5043408;28;20218;-81
2022/08/13 11:01:50;;;;;;;4.28;2.10;;;29.50;39.00;;;;;;5044760;28;20222;-81
2022/08/13 11:04:17;;;;;;;2.38;2.20;;;29.60;39.30;;;;;;5047665;28;20570;-81
2022/08/13 11:06:46;;;;;;;4.05;2.15;;;29.70;39.20;;;;;;5044550;28;20198;-81
2022/08/13 11:09:14;;;;;;;2.67;2.00;;;29.50;38.50;;;;;;5047130;28;20226;-82
2022/08/13 11:11:41;;;;;;;2.80;1.65;;;29.70;39.10;;;;;;5048606;28;20214;-81
2022/08/13 11:14:09;;;;;;;3.67;2.03;;;29.80;38.20;;;;;;5045631;28;20207;-82
2022/08/13 11:16:57;;;;;;;2.22;2.10;;;29.90;37.50;;;;;;5044971;28;20233;-82
2022/08/13 11:19:29;;;;;;;3.55;2.03;;;30.00;36.90;;;;;;5047186;28;20203;-84
2022/08/13 11:21:56;;;;;;;2.30;2.10;;;29.90;36.70;;;;;;5041991;28;20219;-82
2022/08/13 11:24:24;;;;;;;2.40;1.90;;;30.00;36.40;;;;;;5045073;28;20201;-82
2022/08/13 11:26:52;;;;;;;1.90;1.73;;;30.00;35.30;;;;;;5041381;28;20198;-81
2022/08/13 11:29:19;;;;;;;2.20;2.00;;;30.00;35.60;;;;;;5058870;28;20578;-81
2022/08/13 11:32:13;;;;;;;3.72;1.80;;;29.80;35.90;;;;;;5047001;28;20202;-81
2022/08/13 11:34:50;;;;;;;2.95;2.70;;;30.00;35.90;;;;;;5049348;28;20564;-81
2022/08/13 11:37:28;;;;;;;2.83;2.28;;;30.30;37.60;;;;;;5038312;28;20229;-81
2022/08/13 11:39:56;;;;;;;2.78;2.42;;;30.40;38.60;;;;;;5039132;28;20198;-81
2022/08/13 11:42:32;;;;;;;6.25;2.58;;;30.30;38.50;;;;;;5041148;28;20199;-81
2022/08/13 11:44:59;;;;;;;3.72;2.50;;;30.30;38.50;;;;;;5043469;28;20216;-81
2022/08/13 11:47:29;;;;;;;2.50;2.30;;;30.40;38.20;;;;;;5046467;28;20221;-80
2022/08/13 11:49:58;;;;;;;2.63;2.42;;;30.50;38.10;;;;;;5047073;28;20210;-81
2022/08/13 11:52:25;;;;;;;3.15;2.80;;;30.60;38.40;;;;;;5049928;28;20198;-82
2022/08/13 11:54:53;;;;;;;2.47;2.20;;;30.80;38.40;;;;;;5035635;28;20207;-82
2022/08/13 11:57:20;;;;;;;3.15;2.50;;;30.90;37.50;;;;;;5044018;28;20226;-82
2022/08/13 11:59:50;;;;;;;2.30;2.20;;;30.90;38.10;;;;;;5040362;28;20684;-82
2022/08/13 12:02:18;;;;;;;2.10;2.00;;;30.90;38.30;;;;;;5049096;28;20199;-81
2022/08/13 12:04:55;;;;;;;2.83;2.40;;;31.20;37.30;;;;;;5053099;28;20194;-82
2022/08/13 12:07:25;;;;;;;3.28;3.03;;;31.30;37.60;;;;;;5045969;28;20217;-82
2022/08/13 12:09:53;;;;;;;2.80;2.60;;;31.20;35.20;;;;;;5044548;28;20194;-82
2022/08/13 12:12:40;;;;;;;2.15;2.00;;;31.30;35.90;;;;;;5050612;28;20213;-82
2022/08/13 12:15:45;;;;;;;3.25;2.33;;;31.40;35.20;;;;;;5032711;28;20225;-80
2022/08/13 12:18:13;;;;;;;2.97;2.25;;;31.30;36.00;;;;;;5042086;28;20232;-79
2022/08/13 12:20:41;;;;;;;4.90;2.30;;;31.60;36.20;;;;;;5040658;28;20199;-79
2022/08/13 12:23:10;;;;;;;2.50;2.25;;;31.80;36.20;;;;;;5043261;28;20213;-80
2022/08/13 12:25:38;;;;;;;2.50;2.30;;;31.80;36.40;;;;;;5039455;28;20205;-79
2022/08/13 12:28:16;;;;;;;3.42;2.13;;;31.90;36.10;;;;;;5046287;28;20225;-79
2022/08/13 12:30:58;;;;;;;2.67;2.47;;;31.80;36.10;;;;;;5039670;28;20201;-79
2022/08/13 12:33:27;;;;;;;2.60;2.38;;;31.70;36.10;;;;;;5047289;28;20222;-79
2022/08/13 12:35:54;;;;;;;3.00;2.33;;;31.60;35.80;;;;;;5052205;28;20206;-79
2022/08/13 12:38:42;;;;;;;2.63;2.42;;;31.70;35.20;;;;;;5041295;28;20214;-79
2022/08/13 12:41:10;;;;;;;2.90;2.58;;;32.00;34.60;;;;;;5042518;28;20209;-82
2022/08/13 12:43:37;;;;;;;2.60;2.40;;;32.00;34.80;;;;;;5047368;28;20205;-82
2022/08/13 12:46:17;;;;;;;2.55;2.33;;;32.10;33.90;;;;;;5043080;28;20652;-81
2022/08/13 12:48:45;;;;;;;2.58;2.38;;;32.00;33.80;;;;;;5041956;28;20607;-85
2022/08/13 12:51:12;;;;;;;2.40;2.30;;;32.50;33.80;;;;;;5060162;28;20210;-81
2022/08/13 12:53:40;;;;;;;2.42;2.22;;;32.70;33.00;;;;;;5045670;28;20199;-81
2022/08/13 12:56:12;;;;;;;2.42;2.30;;;33.00;33.20;;;;;;5047018;28;20199;-81
2022/08/13 12:58:40;;;;;;;2.50;2.40;;;33.00;32.90;;;;;;5048173;28;20571;-81
2022/08/13 13:01:08;;;;;;;2.58;2.38;;;32.70;33.30;;;;;;5055768;28;20219;-82
2022/08/13 13:03:35;;;;;;;2.63;2.40;;;32.80;33.40;;;;;;5045173;28;20206;-81
2022/08/13 13:06:03;;;;;;;3.45;2.22;;;32.80;32.70;;;;;;5047541;28;20213;-81
2022/08/13 13:08:32;;;;;;;2.88;2.67;;;33.00;32.90;;;;;;5046042;28;20577;-81
2022/08/13 13:11:39;;;;;;;2.53;2.25;;;33.20;32.90;;;;;;5051070;28;20210;-82
2022/08/13 13:14:07;;;;;;;2.47;2.30;;;33.50;33.00;;;;;;5039172;28;20197;-81
2022/08/13 13:16:38;;;;;;;3.13;2.80;;;33.50;31.90;;;;;;5043651;28;20215;-81
2022/08/13 13:19:24;;;;;;;2.90;2.65;;;32.90;31.80;;;;;;5047783;28;20226;-81